createdAt,value
2023-05-20T00:01:17.430Z,3.97
2023-05-20T00:03:44.494Z,3.13
2023-05-20T00:06:11.554Z,2.60
2023-05-20T00:08:38.657Z,3.22
2023-05-20T00:11:05.668Z,3.30
2023-05-20T00:13:32.746Z,3.15
2023-05-20T00:15:59.674Z,3.13
2023-05-20T00:18:26.725Z,3.03
2023-05-20T00:20:54.582Z,2.47
2023-05-20T00:23:21.594Z,3.20
2023-05-20T00:25:48.541Z,3.00
2023-05-20T00:28:15.630Z,3.33
2023-05-20T00:30:43.316Z,3.75
2023-05-20T00:33:10.334Z,2.97
2023-05-20T00:35:37.306Z,2.90
2023-05-20T00:38:04.556Z,3.60
2023-05-20T00:40:31.735Z,3.50
2023-05-20T00:42:58.856Z,3.60
2023-05-20T00:45:26.209Z,3.83
2023-05-20T00:47:53.601Z,3.05
2023-05-20T00:50:20.907Z,2.78
2023-05-20T00:52:48.430Z,2.75
2023-05-20T00:55:16.111Z,3.80
2023-05-20T00:57:43.224Z,3.15
2023-05-20T01:00:11.294Z,2.83
2023-05-20T01:02:38.895Z,2.70
2023-05-20T01:05:07.100Z,3.00
2023-05-20T01:07:34.455Z,3.72
2023-05-20T01:10:02.092Z,3.42
2023-05-20T01:12:43.857Z,4.57
2023-05-20T01:15:13.059Z,4.18
2023-05-20T01:17:45.172Z,3.22
2023-05-20T01:20:14.819Z,3.22
2023-05-20T01:23:08.372Z,2.55
2023-05-20T01:25:35.441Z,3.72
2023-05-20T01:28:02.785Z,4.97
2023-05-20T01:30:38.256Z,2.72
2023-05-20T01:33:11.528Z,2.60
2023-05-20T01:35:40.724Z,3.75
2023-05-20T01:38:08.552Z,3.63
2023-05-20T01:40:36.229Z,4.00
2023-05-20T01:43:04.392Z,3.78
2023-05-20T01:45:32.087Z,2.97
2023-05-20T01:48:01.716Z,4.40
2023-05-20T01:50:28.877Z,3.33
2023-05-20T01:52:55.962Z,3.25
2023-05-20T01:55:23.078Z,2.92
2023-05-20T01:57:50.042Z,3.15
2023-05-20T02:00:17.221Z,2.75
2023-05-20T02:02:45.235Z,3.28
2023-05-20T02:05:13.383Z,2.92
2023-05-20T02:07:43.232Z,2.55
2023-05-20T02:10:10.943Z,2.85
2023-05-20T02:12:38.086Z,3.92
2023-05-20T02:15:06.503Z,3.03
2023-05-20T02:17:33.466Z,2.85
2023-05-20T02:20:00.662Z,2.70
2023-05-20T02:22:27.656Z,3.55
2023-05-20T02:24:54.628Z,2.88
2023-05-20T02:27:21.575Z,3.40
2023-05-20T02:29:48.543Z,2.88
2023-05-20T02:32:15.483Z,3.95
2023-05-20T02:34:42.474Z,2.35
2023-05-20T02:37:09.434Z,2.80
2023-05-20T02:39:37.619Z,2.72
2023-05-20T02:42:04.786Z,3.10
2023-05-20T02:44:31.938Z,2.58
2023-05-20T02:46:58.943Z,3.13
2023-05-20T02:49:26.465Z,3.95
2023-05-20T02:51:53.451Z,3.08
2023-05-20T02:54:20.475Z,3.17
2023-05-20T02:56:47.466Z,3.47
2023-05-20T02:59:14.766Z,3.17
2023-05-20T03:01:41.813Z,3.00
2023-05-20T03:04:09.051Z,2.95
2023-05-20T03:06:38.225Z,3.00
2023-05-20T03:09:05.920Z,2.92
2023-05-20T03:11:32.924Z,2.97
2023-05-20T03:13:59.926Z,3.30
2023-05-20T03:16:28.169Z,3.60
2023-05-20T03:18:55.368Z,2.67
2023-05-20T03:21:24.026Z,3.33
2023-05-20T03:23:51.306Z,4.07
2023-05-20T03:26:19.336Z,3.67
2023-05-20T03:28:46.319Z,3.35
2023-05-20T03:31:13.509Z,2.90
2023-05-20T03:33:40.667Z,3.72
2023-05-20T03:36:07.866Z,3.50
2023-05-20T03:38:35.108Z,3.33
2023-05-20T03:41:02.136Z,3.22
2023-05-20T03:43:29.161Z,3.10
2023-05-20T03:45:56.721Z,4.53
2023-05-20T03:48:23.753Z,4.22
2023-05-20T03:50:50.951Z,3.92
2023-05-20T03:53:19.272Z,3.70
2023-05-20T03:55:46.440Z,3.38
2023-05-20T03:58:15.410Z,3.90
2023-05-20T04:00:42.587Z,3.70
2023-05-20T04:03:10.491Z,3.50
2023-05-20T04:05:37.763Z,3.25
2023-05-20T04:08:13.628Z,3.95
2023-05-20T04:10:43.956Z,3.60
2023-05-20T04:13:12.254Z,3.83
2023-05-20T04:15:41.488Z,4.03
2023-05-20T04:18:09.014Z,3.40
2023-05-20T04:20:36.523Z,4.35
2023-05-20T04:23:03.554Z,3.00
2023-05-20T04:25:30.538Z,3.47
2023-05-20T04:27:57.998Z,3.72
2023-05-20T04:30:25.436Z,3.42
2023-05-20T04:32:52.870Z,3.15
2023-05-20T04:35:20.189Z,3.13
2023-05-20T04:37:49.283Z,3.55
2023-05-20T04:40:17.136Z,3.20
2023-05-20T04:42:44.885Z,3.38
2023-05-20T04:45:13.603Z,4.45
2023-05-20T04:47:41.927Z,3.83
2023-05-20T04:50:13.688Z,3.63
2023-05-20T04:52:43.263Z,3.47
2023-05-20T04:55:12.070Z,3.70
2023-05-20T04:57:43.546Z,3.03
2023-05-20T05:00:12.624Z,4.10
2023-05-20T05:02:40.728Z,3.63
2023-05-20T05:05:08.392Z,3.95
2023-05-20T05:07:35.865Z,4.22
2023-05-20T05:10:02.953Z,6.75
2023-05-20T05:12:31.517Z,4.38
2023-05-20T05:14:59.305Z,7.25
2023-05-20T05:17:28.765Z,9.95
2023-05-20T05:19:57.095Z,5.30
2023-05-20T05:22:25.433Z,4.68
2023-05-20T05:24:52.489Z,4.10
2023-05-20T05:27:19.529Z,5.53
2023-05-20T05:29:46.524Z,3.78
2023-05-20T05:32:13.664Z,3.08
2023-05-20T05:34:40.972Z,4.10
2023-05-20T05:37:07.954Z,3.53
2023-05-20T05:39:37.707Z,3.35
2023-05-20T05:42:05.606Z,3.17
2023-05-20T05:44:34.043Z,2.40
2023-05-20T05:47:01.453Z,3.15
2023-05-20T05:49:28.633Z,2.50
2023-05-20T05:51:56.239Z,2.30
2023-05-20T05:54:24.125Z,1.95
2023-05-20T05:56:52.579Z,1.92
2023-05-20T05:59:20.160Z,2.20
2023-05-20T06:01:47.296Z,1.90
2023-05-20T06:04:15.429Z,1.88
2023-05-20T06:06:42.722Z,2.97
2023-05-20T06:09:09.722Z,1.90
2023-05-20T06:11:37.309Z,2.33
2023-05-20T06:14:04.463Z,1.80
2023-05-20T06:16:31.662Z,2.00
2023-05-20T06:19:03.284Z,2.42
2023-05-20T06:21:32.696Z,1.70
2023-05-20T06:24:00.087Z,1.73
2023-05-20T06:26:27.544Z,2.30
2023-05-20T06:28:54.677Z,2.13
2023-05-20T06:31:22.485Z,1.70
2023-05-20T06:33:51.001Z,2.08
2023-05-20T06:36:18.249Z,1.48
2023-05-20T06:38:45.411Z,1.98
2023-05-20T06:41:16.763Z,1.50
2023-05-20T06:43:43.749Z,1.95
2023-05-20T06:46:37.083Z,1.65
2023-05-20T06:49:06.657Z,1.40
2023-05-20T06:51:33.913Z,1.60
2023-05-20T06:54:01.744Z,1.90
2023-05-20T06:56:28.898Z,1.70
2023-05-20T06:58:56.065Z,1.73
2023-05-20T07:01:23.511Z,1.70
2023-05-20T07:03:51.393Z,1.88
2023-05-20T07:06:19.244Z,2.00
2023-05-20T07:08:46.285Z,1.67
2023-05-20T07:11:13.956Z,1.50
2023-05-20T07:13:41.203Z,2.15
2023-05-20T07:16:08.422Z,1.20
2023-05-20T07:18:38.063Z,1.50
2023-05-20T07:21:05.203Z,1.67
2023-05-20T07:23:44.161Z,1.70
2023-05-20T07:26:11.257Z,1.70
2023-05-20T07:28:39.448Z,1.92
2023-05-20T07:31:07.075Z,2.10
2023-05-20T07:33:40.100Z,1.67
2023-05-20T07:36:09.073Z,1.90
2023-05-20T07:38:39.764Z,1.58
2023-05-20T07:41:09.236Z,1.83
2023-05-20T07:43:36.406Z,1.42
2023-05-20T07:46:03.772Z,1.70
2023-05-20T07:48:31.104Z,2.10
2023-05-20T07:50:59.271Z,1.70
2023-05-20T07:53:27.617Z,2.60
2023-05-20T07:55:56.347Z,1.75
2023-05-20T07:58:24.943Z,2.08
2023-05-20T08:00:52.039Z,1.90
2023-05-20T08:03:19.625Z,2.30
2023-05-20T08:05:54.496Z,1.50
2023-05-20T08:08:21.681Z,1.92
2023-05-20T08:10:59.280Z,2.30
2023-05-20T08:13:27.209Z,1.70
2023-05-20T08:15:55.042Z,2.67
2023-05-20T08:18:23.072Z,1.80
2023-05-20T08:20:50.241Z,2.35
2023-05-20T08:23:17.361Z,2.25
2023-05-20T08:25:46.896Z,1.98
2023-05-20T08:28:14.743Z,1.63
2023-05-20T08:30:42.203Z,1.77
2023-05-20T08:33:09.400Z,1.40
2023-05-20T08:35:39.511Z,1.70
2023-05-20T08:38:07.811Z,1.42
2023-05-20T08:40:37.930Z,1.52
2023-05-20T08:43:06.016Z,1.80
2023-05-20T08:45:35.153Z,2.33
2023-05-20T08:48:07.765Z,2.28
2023-05-20T08:50:34.949Z,1.30
2023-05-20T08:53:02.400Z,1.30
2023-05-20T08:55:43.662Z,1.33
2023-05-20T08:58:10.852Z,1.58
2023-05-20T09:00:38.411Z,1.77
2023-05-20T09:03:05.644Z,1.45
2023-05-20T09:05:33.143Z,1.38
2023-05-20T09:08:11.863Z,1.52
2023-05-20T09:10:41.693Z,1.38
2023-05-20T09:13:10.351Z,1.27
2023-05-20T09:15:39.117Z,1.50
2023-05-20T09:18:08.672Z,2.67
2023-05-20T09:20:37.670Z,1.50
2023-05-20T09:23:09.904Z,3.17
2023-05-20T09:25:37.908Z,1.63
2023-05-20T09:28:07.591Z,2.72
2023-05-20T09:30:34.930Z,1.25
2023-05-20T09:33:05.909Z,1.98
2023-05-20T09:35:39.113Z,1.65
2023-05-20T09:38:10.065Z,1.33
2023-05-20T09:40:40.422Z,1.77
2023-05-20T09:43:08.443Z,1.17
2023-05-20T09:45:35.866Z,1.65
2023-05-20T09:48:05.892Z,2.40
2023-05-20T09:50:33.250Z,1.40
2023-05-20T09:53:04.079Z,1.75
2023-05-20T09:55:32.190Z,1.45
2023-05-20T09:58:02.749Z,1.45
2023-05-20T10:00:30.380Z,2.05
2023-05-20T10:02:58.335Z,1.40
2023-05-20T10:05:35.579Z,1.60
2023-05-20T10:08:33.421Z,1.60
2023-05-20T10:11:03.274Z,1.40
2023-05-20T10:13:45.306Z,1.50
2023-05-20T10:16:39.778Z,1.52
2023-05-20T10:19:32.259Z,1.48
2023-05-20T10:22:14.077Z,1.45
2023-05-20T10:24:44.368Z,1.77
2023-05-20T10:27:17.202Z,1.50
2023-05-20T10:29:54.045Z,1.38
2023-05-20T10:32:32.571Z,1.08
2023-05-20T10:35:09.190Z,1.23
2023-05-20T10:37:45.952Z,1.42
2023-05-20T10:40:15.736Z,1.45
2023-05-20T10:42:43.510Z,1.52
2023-05-20T10:45:11.229Z,1.30
2023-05-20T10:47:55.917Z,1.20
2023-05-20T10:50:38.254Z,1.70
2023-05-20T10:53:25.340Z,1.00
2023-05-20T10:55:59.670Z,1.08
2023-05-20T10:58:26.723Z,1.33
2023-05-20T11:00:56.185Z,0.90
2023-05-20T11:03:24.361Z,1.35
2023-05-20T11:05:51.888Z,0.93
2023-05-20T11:08:27.828Z,0.98
2023-05-20T11:10:59.512Z,1.20
2023-05-20T11:13:27.431Z,0.90
2023-05-20T11:15:55.510Z,1.00
2023-05-20T11:18:22.597Z,0.80
2023-05-20T11:20:49.619Z,0.90
2023-05-20T11:23:16.753Z,1.05
2023-05-20T11:25:43.772Z,1.30
2023-05-20T11:28:14.596Z,1.30
2023-05-20T11:30:43.491Z,0.90
2023-05-20T11:33:14.011Z,1.10
2023-05-20T11:35:47.473Z,1.17
2023-05-20T11:38:15.235Z,1.38
2023-05-20T11:40:51.455Z,1.10
2023-05-20T11:43:20.188Z,1.30
2023-05-20T11:45:53.493Z,0.90
2023-05-20T11:48:21.350Z,1.40
2023-05-20T11:50:49.105Z,0.90
2023-05-20T11:53:21.581Z,1.27
2023-05-20T11:55:55.381Z,1.40
2023-05-20T11:58:26.358Z,1.48
2023-05-20T12:00:59.574Z,0.90
2023-05-20T12:03:36.882Z,0.90
2023-05-20T12:06:04.429Z,1.10
2023-05-20T12:08:31.879Z,1.00
2023-05-20T12:10:58.852Z,1.05
2023-05-20T12:13:25.949Z,1.02
2023-05-20T12:15:53.004Z,1.10
2023-05-20T12:18:19.988Z,1.00
2023-05-20T12:20:46.960Z,1.60
2023-05-20T12:23:14.037Z,0.90
2023-05-20T12:25:41.061Z,0.85
2023-05-20T12:28:08.473Z,1.52
2023-05-20T12:30:35.789Z,1.25
2023-05-20T12:33:03.376Z,0.80
2023-05-20T12:35:38.528Z,1.05
2023-05-20T12:38:05.874Z,0.85
2023-05-20T12:40:33.825Z,0.90
2023-05-20T12:43:03.165Z,0.90
2023-05-20T12:45:30.316Z,1.00
2023-05-20T12:47:57.964Z,1.30
2023-05-20T12:50:25.992Z,1.10
2023-05-20T12:52:53.164Z,1.00
2023-05-20T12:55:20.271Z,0.85
2023-05-20T12:57:48.106Z,1.00
2023-05-20T13:00:15.991Z,0.90
2023-05-20T13:02:43.695Z,2.05
2023-05-20T13:05:11.572Z,1.20
2023-05-20T13:07:39.254Z,0.90
2023-05-20T13:10:07.933Z,2.10
2023-05-20T13:12:35.214Z,1.30
2023-05-20T13:15:02.716Z,1.17
2023-05-20T13:17:29.735Z,1.13
2023-05-20T13:19:56.972Z,1.88
2023-05-20T13:22:24.073Z,1.60
2023-05-20T13:24:51.132Z,0.73
2023-05-20T13:27:18.072Z,0.93
2023-05-20T13:29:45.019Z,1.48
2023-05-20T13:32:11.953Z,0.80
2023-05-20T13:34:38.972Z,1.17
2023-05-20T13:37:06.793Z,0.98
2023-05-20T13:39:34.007Z,1.10
2023-05-20T13:42:01.136Z,1.25
2023-05-20T13:44:28.574Z,1.10
2023-05-20T13:46:56.566Z,1.30
2023-05-20T13:49:25.496Z,0.90
2023-05-20T13:51:52.516Z,1.83
2023-05-20T13:54:21.603Z,0.77
2023-05-20T13:56:48.772Z,1.02
2023-05-20T13:59:15.863Z,0.70
2023-05-20T14:01:45.128Z,1.00
2023-05-20T14:04:12.714Z,0.90
2023-05-20T14:06:40.550Z,1.00
2023-05-20T14:09:11.157Z,0.73
2023-05-20T14:11:38.140Z,1.20
2023-05-20T14:14:05.260Z,0.80
2023-05-20T14:16:32.773Z,0.70
2023-05-20T14:18:59.909Z,0.90
2023-05-20T14:21:26.925Z,0.90
2023-05-20T14:23:54.058Z,1.00
2023-05-20T14:26:21.791Z,1.20
2023-05-20T14:28:49.110Z,1.10
2023-05-20T14:31:16.479Z,0.93
2023-05-20T14:33:43.496Z,2.00
2023-05-20T14:36:11.413Z,0.90
2023-05-20T14:38:38.458Z,1.30
2023-05-20T14:41:05.518Z,1.00
2023-05-20T14:43:32.425Z,0.77
2023-05-20T14:45:59.563Z,0.90
2023-05-20T14:48:26.702Z,1.00
2023-05-20T14:50:53.688Z,2.53
2023-05-20T14:53:21.092Z,0.82
2023-05-20T14:55:48.152Z,0.80
2023-05-20T14:58:15.142Z,0.88
2023-05-20T15:00:42.157Z,0.65
2023-05-20T15:03:09.397Z,0.70
2023-05-20T15:05:36.419Z,0.80
2023-05-20T15:08:03.857Z,0.95
2023-05-20T15:10:30.956Z,0.90
2023-05-20T15:12:57.900Z,0.90
2023-05-20T15:15:24.876Z,1.10
2023-05-20T15:17:51.926Z,0.70
2023-05-20T15:20:18.929Z,0.70
2023-05-20T15:22:47.798Z,1.08
2023-05-20T15:25:15.092Z,0.77
2023-05-20T15:27:42.310Z,0.93
2023-05-20T15:30:10.325Z,1.20
2023-05-20T15:32:37.472Z,0.80
2023-05-20T15:35:05.265Z,1.23
2023-05-20T15:37:32.262Z,0.70
2023-05-20T15:39:59.346Z,0.70
2023-05-20T15:42:26.951Z,1.08
2023-05-20T15:44:53.954Z,1.10
2023-05-20T15:47:21.442Z,0.73
2023-05-20T15:49:48.534Z,0.90
2023-05-20T15:52:15.730Z,0.70
2023-05-20T15:54:42.700Z,0.90
2023-05-20T15:57:10.167Z,1.00
2023-05-20T15:59:37.165Z,1.00
2023-05-20T16:02:04.311Z,0.90
2023-05-20T16:04:32.534Z,1.17
2023-05-20T16:06:59.729Z,0.60
2023-05-20T16:09:26.741Z,1.42
2023-05-20T16:11:53.773Z,1.08
2023-05-20T16:14:20.780Z,0.73
2023-05-20T16:16:47.896Z,0.70
2023-05-20T16:19:15.162Z,0.52
2023-05-20T16:21:42.188Z,0.60
2023-05-20T16:24:09.168Z,0.80
2023-05-20T16:26:36.150Z,1.17
2023-05-20T16:29:03.193Z,1.00
2023-05-20T16:31:30.212Z,1.10
2023-05-20T16:33:57.489Z,0.68
2023-05-20T16:36:24.565Z,0.80
2023-05-20T16:38:51.511Z,1.55
2023-05-20T16:41:18.557Z,1.00
2023-05-20T16:43:45.638Z,0.90
2023-05-20T16:46:14.499Z,0.88
2023-05-20T16:48:42.529Z,1.00
2023-05-20T16:51:09.488Z,0.90
2023-05-20T16:53:36.510Z,0.73
2023-05-20T16:56:06.055Z,0.85
2023-05-20T16:58:33.017Z,0.60
2023-05-20T17:01:00.032Z,0.80
2023-05-20T17:03:27.023Z,1.17
2023-05-20T17:05:53.991Z,1.05
2023-05-20T17:08:21.012Z,0.93
2023-05-20T17:10:50.708Z,0.90
2023-05-20T17:13:18.775Z,0.93
2023-05-20T17:15:45.840Z,1.10
2023-05-20T17:18:12.846Z,0.70
2023-05-20T17:20:39.877Z,0.93
2023-05-20T17:23:06.860Z,1.00
2023-05-20T17:25:35.042Z,0.80
2023-05-20T17:28:02.131Z,1.25
2023-05-20T17:30:29.233Z,0.85
2023-05-20T17:32:57.449Z,0.95
2023-05-20T17:35:25.879Z,0.90
2023-05-20T17:37:53.645Z,0.90
2023-05-20T17:40:21.239Z,0.90
2023-05-20T17:42:48.507Z,0.95
2023-05-20T17:45:15.819Z,0.90
2023-05-20T17:47:42.836Z,1.10
2023-05-20T17:50:10.356Z,0.93
2023-05-20T17:52:37.415Z,1.00
2023-05-20T17:55:04.992Z,1.20
2023-05-20T17:57:32.274Z,1.05
2023-05-20T17:59:59.229Z,1.10
2023-05-20T18:02:26.294Z,0.95
2023-05-20T18:04:53.360Z,0.77
2023-05-20T18:07:20.514Z,0.80
2023-05-20T18:09:47.537Z,1.10
2023-05-20T18:12:14.471Z,1.27
2023-05-20T18:14:41.527Z,1.13
2023-05-20T18:17:08.515Z,0.98
2023-05-20T18:19:35.702Z,1.25
2023-05-20T18:22:02.881Z,1.00
2023-05-20T18:24:30.133Z,0.90
2023-05-20T18:26:57.582Z,0.80
2023-05-20T18:29:26.789Z,0.90
2023-05-20T18:31:53.822Z,1.17
2023-05-20T18:34:21.279Z,1.00
2023-05-20T18:36:48.587Z,1.33
2023-05-20T18:39:20.283Z,1.20
2023-05-20T18:41:48.258Z,1.10
2023-05-20T18:44:17.052Z,0.65
2023-05-20T18:46:44.495Z,1.08
2023-05-20T18:49:11.521Z,1.05
2023-05-20T18:51:39.841Z,0.98
2023-05-20T18:54:07.097Z,1.00
2023-05-20T18:56:34.653Z,1.10
2023-05-20T18:59:01.635Z,1.13
2023-05-20T19:01:28.709Z,0.98
2023-05-20T19:03:55.894Z,1.00
2023-05-20T19:06:22.903Z,1.10
2023-05-20T19:08:50.053Z,1.00
2023-05-20T19:11:17.206Z,1.30
2023-05-20T19:13:44.279Z,0.80
2023-05-20T19:16:11.378Z,1.30
2023-05-20T19:18:38.489Z,1.27
2023-05-20T19:21:05.879Z,1.80
2023-05-20T19:23:32.875Z,0.85
2023-05-20T19:25:59.955Z,0.95
2023-05-20T19:28:26.986Z,1.05
2023-05-20T19:30:54.066Z,1.05
2023-05-20T19:33:21.725Z,1.17
2023-05-20T19:35:49.109Z,1.00
2023-05-20T19:38:16.361Z,1.30
2023-05-20T19:40:47.727Z,1.35
2023-05-20T19:43:15.126Z,1.05
2023-05-20T19:45:42.429Z,1.45
2023-05-20T19:48:09.795Z,1.40
2023-05-20T19:50:37.504Z,1.50
2023-05-20T19:53:07.277Z,1.42
2023-05-20T19:55:36.069Z,1.23
2023-05-20T19:58:03.459Z,1.73
2023-05-20T20:00:30.437Z,1.38
2023-05-20T20:02:57.757Z,0.90
2023-05-20T20:05:25.977Z,1.08
2023-05-20T20:07:53.156Z,1.38
2023-05-20T20:10:20.313Z,1.30
2023-05-20T20:12:47.517Z,1.52
2023-05-20T20:15:14.787Z,0.90
2023-05-20T20:17:46.061Z,1.55
2023-05-20T20:20:16.766Z,1.10
2023-05-20T20:22:44.367Z,1.30
2023-05-20T20:25:14.446Z,1.38
2023-05-20T20:27:44.036Z,1.05
2023-05-20T20:30:15.178Z,1.33
2023-05-20T20:32:42.808Z,1.33
2023-05-20T20:35:10.895Z,1.35
2023-05-20T20:37:38.471Z,1.55
2023-05-20T20:40:08.170Z,1.08
2023-05-20T20:42:35.199Z,1.20
2023-05-20T20:45:02.325Z,0.90
2023-05-20T20:47:29.639Z,1.30
2023-05-20T20:49:56.954Z,1.17
2023-05-20T20:52:24.013Z,1.20
2023-05-20T20:54:50.938Z,2.10
2023-05-20T20:57:17.918Z,1.20
2023-05-20T20:59:47.886Z,1.08
2023-05-20T21:02:15.500Z,1.40
2023-05-20T21:04:43.130Z,1.67
2023-05-20T21:07:10.339Z,1.15
2023-05-20T21:09:37.532Z,1.30
2023-05-20T21:12:06.779Z,1.05
2023-05-20T21:14:33.925Z,1.80
2023-05-20T21:17:01.112Z,1.55
2023-05-20T21:19:29.933Z,1.10
2023-05-20T21:21:57.356Z,1.20
2023-05-20T21:24:24.298Z,1.65
2023-05-20T21:26:51.363Z,1.38
2023-05-20T21:29:18.313Z,1.65
2023-05-20T21:31:45.447Z,1.45
2023-05-20T21:34:12.525Z,1.00
2023-05-20T21:36:39.529Z,1.25
2023-05-20T21:39:06.564Z,1.38
2023-05-20T21:41:33.593Z,1.23
2023-05-20T21:44:00.653Z,1.33
2023-05-20T21:46:27.625Z,1.65
2023-05-20T21:48:54.635Z,1.58
2023-05-20T21:51:21.563Z,1.80
2023-05-20T21:53:48.524Z,2.25
2023-05-20T21:56:15.606Z,1.45
2023-05-20T21:58:42.576Z,1.75
2023-05-20T22:01:09.939Z,1.55
2023-05-20T22:03:38.246Z,1.75
2023-05-20T22:06:06.133Z,1.92
2023-05-20T22:08:33.857Z,1.52
2023-05-20T22:11:05.355Z,1.70
2023-05-20T22:13:36.197Z,1.83
2023-05-20T22:16:05.075Z,1.60
2023-05-20T22:18:32.603Z,1.98
2023-05-20T22:21:01.101Z,1.95
2023-05-20T22:23:29.049Z,1.83
2023-05-20T22:25:56.811Z,1.65
2023-05-20T22:28:26.164Z,1.60
2023-05-20T22:30:53.172Z,1.77
2023-05-20T22:33:20.132Z,1.80
2023-05-20T22:35:47.053Z,1.65
2023-05-20T22:38:14.043Z,2.00
2023-05-20T22:40:41.131Z,1.85
2023-05-20T22:43:08.109Z,1.80
2023-05-20T22:45:35.395Z,1.80
2023-05-20T22:48:03.720Z,1.90
2023-05-20T22:50:30.788Z,2.05
2023-05-20T22:52:57.834Z,1.63
2023-05-20T22:55:24.827Z,1.65
2023-05-20T22:57:51.786Z,1.80
2023-05-20T23:00:18.807Z,2.15
2023-05-20T23:02:49.536Z,2.15
2023-05-20T23:05:16.772Z,1.60
2023-05-20T23:07:44.814Z,1.92
2023-05-20T23:10:12.042Z,2.15
2023-05-20T23:12:39.104Z,1.80
2023-05-20T23:15:07.434Z,1.60
2023-05-20T23:17:34.452Z,1.80
2023-05-20T23:20:01.510Z,1.25
2023-05-20T23:22:28.475Z,1.77
2023-05-20T23:24:55.621Z,1.50
2023-05-20T23:27:22.694Z,1.60
2023-05-20T23:29:49.642Z,1.48
2023-05-20T23:32:16.609Z,1.58
2023-05-20T23:34:43.623Z,1.42
2023-05-20T23:37:10.551Z,1.67
2023-05-20T23:39:37.533Z,1.80
2023-05-20T23:42:05.384Z,1.67
2023-05-20T23:44:32.357Z,1.83
2023-05-20T23:46:59.402Z,1.63
2023-05-20T23:49:27.189Z,1.67
2023-05-20T23:51:54.259Z,2.00
2023-05-20T23:54:22.808Z,1.88
2023-05-20T23:56:50.295Z,2.47
2023-05-20T23:59:17.392Z,1.85
